Flight ASXVIP6X

  • Submitted By: Krzysztof H. Blaszkow
  • Departure Airport: Kerry Airport (EIKY)
  • Arrival Airport: Dublin (EIDW)
  • Aircraft: BE58 (EJ-IAWH)
  • Flight Time: 01.14.34
  • Date Submitted: 04/23/2017
  • Status: Accepted
Flight Details
Gross Revenue:
(5 load / € 450.00 per unit
€ 2,250.00
Fuel Cost:
(71.214 fuel used @ 0.45 / unit)
€ 32.05

Additional Log Information:

View Log

[11:59] - Carenado BARON B58 GOLD GREEN
[11:59] - Flight ASXVIP6X is ready to depart EIKY with a final destination of EIDW.
[11:59] - Parking Brake Applied
[11:59] - Beacon Light ON
[11:59] - Wing Lights ON
[11:59] - Boarding
[11:59] - ADF1 - 284.0
[11:59] - ADF2 - 240.0
[11:59] - NAV1 - 108.70
[11:59] - NAV2 - 110.60
[11:59] - COM1 - 122.80
[11:59] - COM2 - 127.80
[11:59] - Transponder - 2000
[12:03] - Engine 1 Started
[12:03] - Engine 2 Started
[12:03] - Parking Brake Released
[12:03] - Taxi Lights ON 0AGL
[12:04] - Taxiing to Runway
[12:04] - Landing Lights ON 0AGL
[12:04] - Taxi Lights OFF 0AGL
[12:04] - Strobe Lights ON 0AGL
[12:05] - Taking Off with 5 passengers on board
[12:05] - Take off at 91kts, with a pitch of 6deg and 276lbs of fuel on board
[12:05] - Wind Heading 119 | Wind Speed 3kts | Temperature 13 deg C
[12:05] - METAR Departure: EIKY 231030Z 11006KT 9999 BKN046 13/07 Q1027

[12:05] - Gear up at 78AGL
[12:05] - Climbing to TOC
[12:08] - NAV1 - 114.60
[12:08] - AutoPilot Engaged at 4190AGL
[12:12] - Landing Lights OFF 7461AGL
[12:20] - TOC reached
[12:20] - Cruise started
[12:21] - NAV1 - 108.70
[12:22] - NAV1 - 114.90
[12:53] - TOD reached
[12:53] - Descending to destination
[12:55] - Landing Lights ON 9633AGL
[13:01] - Landing Shortly
[13:05] - AutoPilot Disengaged at 2992AGL
[13:06] - Flaps to position 1 at 2530ft and 160kts
[13:06] - Gear down at 2411AGL
[13:07] - Flaps to position 2 at 758ft and 131kts
[13:08] - Landed at -68fpm. With 122lbs of fuel onboard and a pitch angle of 1deg.
[13:08] - Wind Heading 263 | Wind Speed 4kts | Temperature 11 deg C
[13:08] - METAR Arrival: EIDW 231130Z VRB03KT 9999 FEW018 SCT025 BKN034 12/07 Q1027 NOSIG

[13:08] - Flaps to position 1
[13:08] - Flaps to position 0
[13:08] - Taxiing to Gate
[13:08] - Landing Lights OFF 3AGL
[13:08] - Taxi Lights ON 3AGL
[13:08] - Strobe Lights OFF 3AGL
[13:13] - Parking Brake Applied
[13:13] - Arrived safely at EIDW. We hope you enjoyed your flight!
[13:13] - Engine 1 Stopped
[13:13] - Engine 1 Started
[13:13] - Engine 2 Stopped
[13:13] - Engine 2 Started
[13:13] - Taxi Lights OFF 3AGL
[13:13] - Engine 1 Stopped
[13:13] - Engine 1 Started
[13:13] - Engine 2 Stopped
[13:13] - Engine 1 Stopped
[13:14] - Carenado BARON B58 GOLD GREEN
[13:14] - MaxSim Rate: 1x
[13:14] - SiouxAcars ver: 1.0.1.2

Route Map